Terminal Aerodrome Forecast
Issued by NWS Cleveland, OH

Home | Current Version | Previous Version | Graphics & Text | Print | Product List | Glossary On
Versions: 1 2 3 4 5 6 7 8 9 10 11 12 13 14 15 16 17 18 19 20 21 22 23 24 25 26 27 28 29 30
000
FTUS41 KCLE 161500 AAA
TAFCLE
TAF AMD
KCLE 161522Z 1615/1718 18012G25KT P6SM VCSH BKN040 OVC080
     FM161700 17012KT P6SM VCSH BKN015 OVC025
      TEMPO 1619/1623 5SM -SHRA OVC015
     FM170200 19008KT P6SM BKN008 OVC014
     FM171200 26007KT P6SM SCT010 BKN018=

USA.gov is the U.S. government's official web portal to all federal, state and local government web resources and services.